sensor_id;sensor_type;location;lat;lon;timestamp;P1;durP1;ratioP1;P2;durP2;ratioP2
35540;SDS011;21650;48.840;9.162;2023-07-24T00:02:24;12.77;;;7.13;;
35540;SDS011;21650;48.840;9.162;2023-07-24T00:04:50;13.83;;;7.53;;
35540;SDS011;21650;48.840;9.162;2023-07-24T00:07:15;12.53;;;7.30;;
35540;SDS011;21650;48.840;9.162;2023-07-24T00:09:41;13.47;;;7.10;;
35540;SDS011;21650;48.840;9.162;2023-07-24T00:12:06;13.30;;;7.17;;
35540;SDS011;21650;48.840;9.162;2023-07-24T00:14:32;12.10;;;7.43;;
35540;SDS011;21650;48.840;9.162;2023-07-24T00:16:58;10.40;;;6.93;;
35540;SDS011;21650;48.840;9.162;2023-07-24T00:19:23;11.37;;;5.90;;
35540;SDS011;21650;48.840;9.162;2023-07-24T00:21:49;14.33;;;7.90;;
35540;SDS011;21650;48.840;9.162;2023-07-24T00:24:14;11.20;;;7.00;;
35540;SDS011;21650;48.840;9.162;2023-07-24T00:26:40;10.23;;;6.97;;
35540;SDS011;21650;48.840;9.162;2023-07-24T00:29:06;12.80;;;7.87;;
35540;SDS011;21650;48.840;9.162;2023-07-24T00:31:31;11.33;;;6.97;;
35540;SDS011;21650;48.840;9.162;2023-07-24T00:33:57;10.83;;;6.83;;
35540;SDS011;21650;48.840;9.162;2023-07-24T00:36:25;8.13;;;6.07;;
35540;SDS011;21650;48.840;9.162;2023-07-24T00:38:51;12.07;;;6.70;;
35540;SDS011;21650;48.840;9.162;2023-07-24T00:41:16;13.87;;;6.57;;
35540;SDS011;21650;48.840;9.162;2023-07-24T00:43:42;11.70;;;7.23;;
35540;SDS011;21650;48.840;9.162;2023-07-24T00:46:08;11.40;;;7.50;;
35540;SDS011;21650;48.840;9.162;2023-07-24T00:48:36;10.87;;;6.63;;
35540;SDS011;21650;48.840;9.162;2023-07-24T00:51:03;11.43;;;6.43;;
35540;SDS011;21650;48.840;9.162;2023-07-24T00:53:30;11.40;;;7.83;;
35540;SDS011;21650;48.840;9.162;2023-07-24T00:55:55;11.50;;;6.83;;
35540;SDS011;21650;48.840;9.162;2023-07-24T00:58:21;10.33;;;6.90;;
35540;SDS011;21650;48.840;9.162;2023-07-24T01:00:47;12.33;;;7.70;;
35540;SDS011;21650;48.840;9.162;2023-07-24T01:03:13;10.67;;;7.23;;
35540;SDS011;21650;48.840;9.162;2023-07-24T01:05:39;12.93;;;6.63;;
35540;SDS011;21650;48.840;9.162;2023-07-24T01:08:06;11.93;;;6.90;;
35540;SDS011;21650;48.840;9.162;2023-07-24T01:10:32;11.97;;;7.07;;
35540;SDS011;21650;48.840;9.162;2023-07-24T01:13:14;9.37;;;6.13;;
35540;SDS011;21650;48.840;9.162;2023-07-24T01:16:27;11.47;;;7.27;;
35540;SDS011;21650;48.840;9.162;2023-07-24T01:18:39;13.00;;;7.30;;
35540;SDS011;21650;48.840;9.162;2023-07-24T01:21:04;11.77;;;7.37;;
35540;SDS011;21650;48.840;9.162;2023-07-24T01:23:44;11.87;;;7.23;;
35540;SDS011;21650;48.840;9.162;2023-07-24T01:26:24;10.07;;;7.27;;
35540;SDS011;21650;48.840;9.162;2023-07-24T01:28:50;10.57;;;6.80;;
35540;SDS011;21650;48.840;9.162;2023-07-24T01:31:16;12.53;;;7.30;;
35540;SDS011;21650;48.840;9.162;2023-07-24T01:33:42;13.03;;;7.57;;
35540;SDS011;21650;48.840;9.162;2023-07-24T01:36:09;11.77;;;6.53;;
35540;SDS011;21650;48.840;9.162;2023-07-24T01:38:35;9.17;;;6.07;;
35540;SDS011;21650;48.840;9.162;2023-07-24T01:41:02;10.53;;;7.67;;
35540;SDS011;21650;48.840;9.162;2023-07-24T01:43:29;14.67;;;7.93;;
35540;SDS011;21650;48.840;9.162;2023-07-24T01:45:55;10.13;;;6.93;;
35540;SDS011;21650;48.840;9.162;2023-07-24T01:48:21;9.77;;;6.87;;
35540;SDS011;21650;48.840;9.162;2023-07-24T01:50:47;10.40;;;6.60;;
35540;SDS011;21650;48.840;9.162;2023-07-24T01:53:13;11.17;;;6.70;;
35540;SDS011;21650;48.840;9.162;2023-07-24T01:55:38;11.43;;;6.93;;
35540;SDS011;21650;48.840;9.162;2023-07-24T01:58:04;8.57;;;5.87;;
35540;SDS011;21650;48.840;9.162;2023-07-24T02:00:29;10.40;;;6.67;;
35540;SDS011;21650;48.840;9.162;2023-07-24T02:02:55;10.03;;;6.67;;
35540;SDS011;21650;48.840;9.162;2023-07-24T02:05:21;9.87;;;6.63;;
35540;SDS011;21650;48.840;9.162;2023-07-24T02:07:47;11.77;;;7.27;;
35540;SDS011;21650;48.840;9.162;2023-07-24T02:10:12;12.97;;;7.00;;
35540;SDS011;21650;48.840;9.162;2023-07-24T02:12:38;11.13;;;7.23;;
35540;SDS011;21650;48.840;9.162;2023-07-24T02:15:04;10.63;;;6.93;;
35540;SDS011;21650;48.840;9.162;2023-07-24T02:17:31;10.67;;;6.40;;
35540;SDS011;21650;48.840;9.162;2023-07-24T02:19:56;9.73;;;6.40;;
35540;SDS011;21650;48.840;9.162;2023-07-24T02:22:22;10.00;;;6.53;;
35540;SDS011;21650;48.840;9.162;2023-07-24T02:24:48;14.30;;;7.20;;
35540;SDS011;21650;48.840;9.162;2023-07-24T02:27:24;11.00;;;6.20;;
35540;SDS011;21650;48.840;9.162;2023-07-24T02:29:53;10.27;;;6.40;;
35540;SDS011;21650;48.840;9.162;2023-07-24T02:32:22;11.43;;;6.70;;
35540;SDS011;21650;48.840;9.162;2023-07-24T02:34:51;11.53;;;7.00;;
35540;SDS011;21650;48.840;9.162;2023-07-24T02:37:17;11.87;;;7.57;;
35540;SDS011;21650;48.840;9.162;2023-07-24T02:42:13;11.77;;;7.00;;
35540;SDS011;21650;48.840;9.162;2023-07-24T02:44:39;10.50;;;6.70;;
35540;SDS011;21650;48.840;9.162;2023-07-24T02:47:05;12.37;;;7.30;;
35540;SDS011;21650;48.840;9.162;2023-07-24T02:49:31;9.77;;;6.80;;
35540;SDS011;21650;48.840;9.162;2023-07-24T02:51:57;10.20;;;6.53;;
35540;SDS011;21650;48.840;9.162;2023-07-24T02:54:23;11.03;;;7.23;;
35540;SDS011;21650;48.840;9.162;2023-07-24T02:56:51;10.63;;;6.77;;
35540;SDS011;21650;48.840;9.162;2023-07-24T02:59:16;11.47;;;6.67;;
35540;SDS011;21650;48.840;9.162;2023-07-24T03:01:42;10.57;;;6.90;;
35540;SDS011;21650;48.840;9.162;2023-07-24T03:04:08;11.10;;;6.67;;
35540;SDS011;21650;48.840;9.162;2023-07-24T03:06:34;12.07;;;7.80;;
35540;SDS011;21650;48.840;9.162;2023-07-24T03:08:59;10.33;;;6.60;;
35540;SDS011;21650;48.840;9.162;2023-07-24T03:11:25;9.20;;;6.00;;
35540;SDS011;21650;48.840;9.162;2023-07-24T03:13:51;12.07;;;7.37;;
35540;SDS011;21650;48.840;9.162;2023-07-24T03:16:17;8.30;;;6.43;;
35540;SDS011;21650;48.840;9.162;2023-07-24T03:18:44;10.33;;;6.87;;
35540;SDS011;21650;48.840;9.162;2023-07-24T03:21:10;10.70;;;7.37;;
35540;SDS011;21650;48.840;9.162;2023-07-24T03:23:35;11.67;;;7.10;;
35540;SDS011;21650;48.840;9.162;2023-07-24T03:26:01;11.47;;;6.77;;
35540;SDS011;21650;48.840;9.162;2023-07-24T03:28:27;8.83;;;5.90;;
35540;SDS011;21650;48.840;9.162;2023-07-24T03:30:52;11.27;;;5.87;;
35540;SDS011;21650;48.840;9.162;2023-07-24T03:33:18;13.40;;;6.57;;
35540;SDS011;21650;48.840;9.162;2023-07-24T03:35:44;10.03;;;6.77;;
35540;SDS011;21650;48.840;9.162;2023-07-24T03:38:10;9.77;;;6.87;;
35540;SDS011;21650;48.840;9.162;2023-07-24T03:40:36;10.50;;;6.90;;
35540;SDS011;21650;48.840;9.162;2023-07-24T03:43:01;11.00;;;6.53;;
35540;SDS011;21650;48.840;9.162;2023-07-24T03:45:27;11.47;;;6.60;;
35540;SDS011;21650;48.840;9.162;2023-07-24T03:47:52;11.43;;;6.80;;
35540;SDS011;21650;48.840;9.162;2023-07-24T03:50:18;10.57;;;6.60;;
35540;SDS011;21650;48.840;9.162;2023-07-24T03:52:44;10.50;;;7.10;;
35540;SDS011;21650;48.840;9.162;2023-07-24T03:55:09;11.07;;;6.77;;
35540;SDS011;21650;48.840;9.162;2023-07-24T03:57:35;10.50;;;6.77;;
35540;SDS011;21650;48.840;9.162;2023-07-24T04:00:02;11.43;;;7.30;;
35540;SDS011;21650;48.840;9.162;2023-07-24T04:02:27;11.87;;;6.67;;
35540;SDS011;21650;48.840;9.162;2023-07-24T04:04:53;11.53;;;6.80;;
35540;SDS011;21650;48.840;9.162;2023-07-24T04:07:19;12.07;;;7.47;;
35540;SDS011;21650;48.840;9.162;2023-07-24T04:09:45;12.57;;;6.90;;
35540;SDS011;21650;48.840;9.162;2023-07-24T04:12:10;11.27;;;6.87;;
35540;SDS011;21650;48.840;9.162;2023-07-24T04:14:36;13.73;;;6.77;;
35540;SDS011;21650;48.840;9.162;2023-07-24T04:17:01;12.70;;;7.10;;
35540;SDS011;21650;48.840;9.162;2023-07-24T04:19:27;12.13;;;7.77;;
35540;SDS011;21650;48.840;9.162;2023-07-24T04:21:52;9.63;;;6.53;;
35540;SDS011;21650;48.840;9.162;2023-07-24T04:24:18;11.07;;;7.10;;
35540;SDS011;21650;48.840;9.162;2023-07-24T04:26:44;10.67;;;7.00;;
35540;SDS011;21650;48.840;9.162;2023-07-24T04:29:09;11.80;;;6.97;;
35540;SDS011;21650;48.840;9.162;2023-07-24T04:31:35;11.30;;;6.80;;
35540;SDS011;21650;48.840;9.162;2023-07-24T04:34:00;11.13;;;7.37;;
35540;SDS011;21650;48.840;9.162;2023-07-24T04:36:26;12.97;;;6.53;;
35540;SDS011;21650;48.840;9.162;2023-07-24T04:38:52;13.83;;;7.57;;
35540;SDS011;21650;48.840;9.162;2023-07-24T04:41:17;12.63;;;7.50;;
35540;SDS011;21650;48.840;9.162;2023-07-24T04:43:43;10.87;;;7.37;;
35540;SDS011;21650;48.840;9.162;2023-07-24T04:46:08;12.77;;;7.33;;
35540;SDS011;21650;48.840;9.162;2023-07-24T04:48:34;10.57;;;7.40;;
35540;SDS011;21650;48.840;9.162;2023-07-24T04:51:00;12.53;;;7.57;;
35540;SDS011;21650;48.840;9.162;2023-07-24T04:53:25;9.17;;;6.20;;
35540;SDS011;21650;48.840;9.162;2023-07-24T04:55:51;10.50;;;6.87;;
35540;SDS011;21650;48.840;9.162;2023-07-24T04:58:16;11.97;;;6.80;;
35540;SDS011;21650;48.840;9.162;2023-07-24T05:00:42;13.37;;;7.63;;
35540;SDS011;21650;48.840;9.162;2023-07-24T05:03:07;10.47;;;7.13;;
35540;SDS011;21650;48.840;9.162;2023-07-24T05:05:36;10.67;;;7.07;;
35540;SDS011;21650;48.840;9.162;2023-07-24T05:08:02;8.93;;;6.80;;
35540;SDS011;21650;48.840;9.162;2023-07-24T05:10:28;10.17;;;6.80;;
35540;SDS011;21650;48.840;9.162;2023-07-24T05:12:53;14.10;;;7.80;;
35540;SDS011;21650;48.840;9.162;2023-07-24T05:15:21;13.27;;;7.17;;
35540;SDS011;21650;48.840;9.162;2023-07-24T05:17:47;12.10;;;7.57;;
35540;SDS011;21650;48.840;9.162;2023-07-24T05:20:12;11.37;;;7.77;;
35540;SDS011;21650;48.840;9.162;2023-07-24T05:22:38;14.17;;;8.57;;
35540;SDS011;21650;48.840;9.162;2023-07-24T05:25:04;14.87;;;7.80;;
35540;SDS011;21650;48.840;9.162;2023-07-24T05:27:29;12.83;;;7.90;;
35540;SDS011;21650;48.840;9.162;2023-07-24T05:29:55;14.33;;;8.03;;
35540;SDS011;21650;48.840;9.162;2023-07-24T05:32:21;12.77;;;8.53;;
35540;SDS011;21650;48.840;9.162;2023-07-24T05:34:46;15.03;;;8.57;;
35540;SDS011;21650;48.840;9.162;2023-07-24T05:37:12;15.07;;;8.70;;
35540;SDS011;21650;48.840;9.162;2023-07-24T05:39:37;13.53;;;8.33;;
35540;SDS011;21650;48.840;9.162;2023-07-24T05:42:03;14.97;;;8.20;;
35540;SDS011;21650;48.840;9.162;2023-07-24T05:44:29;12.53;;;7.83;;
35540;SDS011;21650;48.840;9.162;2023-07-24T05:46:54;13.03;;;7.77;;
35540;SDS011;21650;48.840;9.162;2023-07-24T05:49:20;13.03;;;7.97;;
35540;SDS011;21650;48.840;9.162;2023-07-24T05:51:46;11.97;;;7.37;;
35540;SDS011;21650;48.840;9.162;2023-07-24T05:54:11;13.03;;;7.80;;
35540;SDS011;21650;48.840;9.162;2023-07-24T05:56:37;14.17;;;8.67;;
35540;SDS011;21650;48.840;9.162;2023-07-24T05:59:02;13.90;;;7.77;;
35540;SDS011;21650;48.840;9.162;2023-07-24T06:01:28;13.60;;;8.17;;
35540;SDS011;21650;48.840;9.162;2023-07-24T06:03:53;13.80;;;8.43;;
35540;SDS011;21650;48.840;9.162;2023-07-24T06:06:19;15.17;;;7.33;;
35540;SDS011;21650;48.840;9.162;2023-07-24T06:08:44;14.07;;;7.13;;
35540;SDS011;21650;48.840;9.162;2023-07-24T06:11:12;15.40;;;7.97;;
35540;SDS011;21650;48.840;9.162;2023-07-24T06:13:38;17.97;;;8.67;;
35540;SDS011;21650;48.840;9.162;2023-07-24T06:16:03;13.17;;;7.53;;
35540;SDS011;21650;48.840;9.162;2023-07-24T06:18:29;14.50;;;8.07;;
35540;SDS011;21650;48.840;9.162;2023-07-24T06:20:55;15.50;;;8.13;;
35540;SDS011;21650;48.840;9.162;2023-07-24T06:23:20;12.47;;;7.77;;
35540;SDS011;21650;48.840;9.162;2023-07-24T06:25:46;13.27;;;8.50;;
35540;SDS011;21650;48.840;9.162;2023-07-24T06:28:11;11.77;;;8.07;;
35540;SDS011;21650;48.840;9.162;2023-07-24T06:30:40;14.53;;;8.03;;
35540;SDS011;21650;48.840;9.162;2023-07-24T06:33:05;13.07;;;7.53;;
35540;SDS011;21650;48.840;9.162;2023-07-24T06:35:31;9.87;;;6.77;;
35540;SDS011;21650;48.840;9.162;2023-07-24T06:37:57;11.97;;;7.23;;
35540;SDS011;21650;48.840;9.162;2023-07-24T06:40:22;11.10;;;7.10;;
35540;SDS011;21650;48.840;9.162;2023-07-24T06:42:48;11.17;;;6.47;;
35540;SDS011;21650;48.840;9.162;2023-07-24T06:45:13;14.87;;;9.57;;
35540;SDS011;21650;48.840;9.162;2023-07-24T06:47:39;9.70;;;6.27;;
35540;SDS011;21650;48.840;9.162;2023-07-24T06:50:05;12.00;;;7.37;;
35540;SDS011;21650;48.840;9.162;2023-07-24T06:52:31;10.17;;;6.80;;
35540;SDS011;21650;48.840;9.162;2023-07-24T06:54:58;14.30;;;7.23;;
35540;SDS011;21650;48.840;9.162;2023-07-24T06:57:24;12.47;;;7.20;;
35540;SDS011;21650;48.840;9.162;2023-07-24T06:59:49;11.90;;;6.33;;
35540;SDS011;21650;48.840;9.162;2023-07-24T07:02:15;12.63;;;7.23;;
35540;SDS011;21650;48.840;9.162;2023-07-24T07:04:41;10.77;;;6.90;;
35540;SDS011;21650;48.840;9.162;2023-07-24T07:07:06;13.93;;;7.30;;
35540;SDS011;21650;48.840;9.162;2023-07-24T07:09:32;10.40;;;6.87;;
35540;SDS011;21650;48.840;9.162;2023-07-24T07:11:57;11.97;;;7.53;;
35540;SDS011;21650;48.840;9.162;2023-07-24T07:14:23;13.43;;;7.73;;
35540;SDS011;21650;48.840;9.162;2023-07-24T07:16:49;10.23;;;7.17;;
35540;SDS011;21650;48.840;9.162;2023-07-24T07:19:14;12.80;;;7.50;;
35540;SDS011;21650;48.840;9.162;2023-07-24T07:21:40;17.00;;;8.40;;
35540;SDS011;21650;48.840;9.162;2023-07-24T07:24:05;11.83;;;7.27;;
35540;SDS011;21650;48.840;9.162;2023-07-24T07:26:31;12.80;;;7.07;;
35540;SDS011;21650;48.840;9.162;2023-07-24T07:28:57;10.20;;;7.17;;
35540;SDS011;21650;48.840;9.162;2023-07-24T07:31:22;10.80;;;7.23;;
35540;SDS011;21650;48.840;9.162;2023-07-24T07:33:48;8.87;;;6.53;;
35540;SDS011;21650;48.840;9.162;2023-07-24T07:36:13;15.17;;;8.37;;
35540;SDS011;21650;48.840;9.162;2023-07-24T07:38:39;11.10;;;7.37;;
35540;SDS011;21650;48.840;9.162;2023-07-24T07:41:05;11.63;;;7.27;;
35540;SDS011;21650;48.840;9.162;2023-07-24T07:43:31;12.47;;;7.00;;
35540;SDS011;21650;48.840;9.162;2023-07-24T07:45:57;13.43;;;8.47;;
35540;SDS011;21650;48.840;9.162;2023-07-24T07:48:24;12.33;;;7.10;;
35540;SDS011;21650;48.840;9.162;2023-07-24T07:50:50;14.37;;;6.90;;
35540;SDS011;21650;48.840;9.162;2023-07-24T07:53:16;11.90;;;6.83;;
35540;SDS011;21650;48.840;9.162;2023-07-24T07:55:42;11.13;;;6.87;;
35540;SDS011;21650;48.840;9.162;2023-07-24T07:58:07;15.17;;;8.03;;
35540;SDS011;21650;48.840;9.162;2023-07-24T08:00:34;11.57;;;7.40;;
35540;SDS011;21650;48.840;9.162;2023-07-24T08:02:59;12.77;;;7.30;;
35540;SDS011;21650;48.840;9.162;2023-07-24T08:05:25;10.10;;;6.87;;
35540;SDS011;21650;48.840;9.162;2023-07-24T08:07:51;13.47;;;8.03;;
35540;SDS011;21650;48.840;9.162;2023-07-24T08:10:16;10.90;;;7.40;;
35540;SDS011;21650;48.840;9.162;2023-07-24T08:12:42;13.20;;;7.97;;
35540;SDS011;21650;48.840;9.162;2023-07-24T08:15:08;11.47;;;7.67;;
35540;SDS011;21650;48.840;9.162;2023-07-24T08:17:35;15.30;;;8.80;;
35540;SDS011;21650;48.840;9.162;2023-07-24T08:20:00;13.17;;;8.70;;
35540;SDS011;21650;48.840;9.162;2023-07-24T08:22:26;12.63;;;7.97;;
35540;SDS011;21650;48.840;9.162;2023-07-24T08:24:51;14.47;;;7.30;;
35540;SDS011;21650;48.840;9.162;2023-07-24T08:27:17;15.20;;;9.33;;
35540;SDS011;21650;48.840;9.162;2023-07-24T08:29:43;15.77;;;9.80;;
35540;SDS011;21650;48.840;9.162;2023-07-24T08:32:08;13.63;;;8.50;;
35540;SDS011;21650;48.840;9.162;2023-07-24T08:34:34;18.93;;;10.10;;
35540;SDS011;21650;48.840;9.162;2023-07-24T08:37:00;13.83;;;8.67;;
35540;SDS011;21650;48.840;9.162;2023-07-24T08:39:25;12.73;;;8.33;;
35540;SDS011;21650;48.840;9.162;2023-07-24T08:41:51;15.07;;;9.27;;
35540;SDS011;21650;48.840;9.162;2023-07-24T08:44:16;15.63;;;9.90;;
35540;SDS011;21650;48.840;9.162;2023-07-24T08:46:42;15.87;;;8.93;;
35540;SDS011;21650;48.840;9.162;2023-07-24T08:49:14;14.53;;;8.87;;
35540;SDS011;21650;48.840;9.162;2023-07-24T08:51:42;16.17;;;8.93;;
35540;SDS011;21650;48.840;9.162;2023-07-24T08:54:09;14.13;;;9.10;;
35540;SDS011;21650;48.840;9.162;2023-07-24T08:56:37;16.97;;;8.43;;
35540;SDS011;21650;48.840;9.162;2023-07-24T08:59:05;15.20;;;8.93;;
35540;SDS011;21650;48.840;9.162;2023-07-24T09:01:30;23.53;;;9.43;;
35540;SDS011;21650;48.840;9.162;2023-07-24T09:03:56;17.23;;;8.83;;
35540;SDS011;21650;48.840;9.162;2023-07-24T09:06:22;14.40;;;9.10;;
35540;SDS011;21650;48.840;9.162;2023-07-24T09:08:47;16.30;;;9.30;;
35540;SDS011;21650;48.840;9.162;2023-07-24T09:11:13;13.77;;;8.47;;
35540;SDS011;21650;48.840;9.162;2023-07-24T09:13:43;13.57;;;8.87;;
35540;SDS011;21650;48.840;9.162;2023-07-24T09:16:08;12.87;;;8.23;;
35540;SDS011;21650;48.840;9.162;2023-07-24T09:18:45;11.23;;;7.10;;
35540;SDS011;21650;48.840;9.162;2023-07-24T09:21:11;14.13;;;8.03;;
35540;SDS011;21650;48.840;9.162;2023-07-24T09:23:39;13.63;;;7.67;;
35540;SDS011;21650;48.840;9.162;2023-07-24T09:26:06;10.63;;;6.70;;
35540;SDS011;21650;48.840;9.162;2023-07-24T09:28:32;10.53;;;6.80;;
35540;SDS011;21650;48.840;9.162;2023-07-24T09:30:59;10.93;;;7.07;;
35540;SDS011;21650;48.840;9.162;2023-07-24T09:33:34;11.27;;;6.90;;
35540;SDS011;21650;48.840;9.162;2023-07-24T09:36:00;11.27;;;7.57;;
35540;SDS011;21650;48.840;9.162;2023-07-24T09:38:27;10.97;;;6.70;;
35540;SDS011;21650;48.840;9.162;2023-07-24T09:40:53;11.37;;;6.40;;
35540;SDS011;21650;48.840;9.162;2023-07-24T09:43:24;10.53;;;6.20;;
35540;SDS011;21650;48.840;9.162;2023-07-24T09:45:52;12.60;;;6.37;;
35540;SDS011;21650;48.840;9.162;2023-07-24T09:48:19;9.07;;;6.57;;
35540;SDS011;21650;48.840;9.162;2023-07-24T09:50:55;10.50;;;6.40;;
35540;SDS011;21650;48.840;9.162;2023-07-24T09:56:18;13.03;;;7.67;;
35540;SDS011;21650;48.840;9.162;2023-07-24T09:58:45;14.23;;;8.33;;
35540;SDS011;21650;48.840;9.162;2023-07-24T10:01:14;16.13;;;7.63;;
35540;SDS011;21650;48.840;9.162;2023-07-24T10:03:43;11.00;;;6.27;;
35540;SDS011;21650;48.840;9.162;2023-07-24T10:06:11;8.37;;;6.17;;
35540;SDS011;21650;48.840;9.162;2023-07-24T10:08:39;12.30;;;6.70;;
35540;SDS011;21650;48.840;9.162;2023-07-24T10:11:05;9.60;;;6.90;;
35540;SDS011;21650;48.840;9.162;2023-07-24T10:13:32;11.40;;;6.63;;
35540;SDS011;21650;48.840;9.162;2023-07-24T10:16:01;10.43;;;6.70;;
35540;SDS011;21650;48.840;9.162;2023-07-24T10:18:30;11.00;;;7.10;;
35540;SDS011;21650;48.840;9.162;2023-07-24T10:21:03;11.33;;;7.40;;
35540;SDS011;21650;48.840;9.162;2023-07-24T10:23:29;10.03;;;6.93;;
35540;SDS011;21650;48.840;9.162;2023-07-24T10:25:55;10.03;;;6.03;;
35540;SDS011;21650;48.840;9.162;2023-07-24T10:28:36;11.87;;;6.07;;
35540;SDS011;21650;48.840;9.162;2023-07-24T10:31:18;10.47;;;6.23;;
35540;SDS011;21650;48.840;9.162;2023-07-24T10:33:44;11.87;;;5.80;;
35540;SDS011;21650;48.840;9.162;2023-07-24T10:36:10;8.43;;;5.07;;
35540;SDS011;21650;48.840;9.162;2023-07-24T10:38:42;7.50;;;4.97;;
35540;SDS011;21650;48.840;9.162;2023-07-24T10:41:09;6.37;;;5.00;;
35540;SDS011;21650;48.840;9.162;2023-07-24T10:46:18;8.23;;;5.37;;
35540;SDS011;21650;48.840;9.162;2023-07-24T10:48:46;10.53;;;5.70;;
35540;SDS011;21650;48.840;9.162;2023-07-24T10:51:13;12.57;;;6.73;;
35540;SDS011;21650;48.840;9.162;2023-07-24T10:53:41;10.43;;;6.17;;
35540;SDS011;21650;48.840;9.162;2023-07-24T10:56:10;14.23;;;6.43;;
35540;SDS011;21650;48.840;9.162;2023-07-24T10:58:36;10.53;;;5.93;;
35540;SDS011;21650;48.840;9.162;2023-07-24T11:01:05;10.20;;;6.20;;
35540;SDS011;21650;48.840;9.162;2023-07-24T11:03:31;10.17;;;5.90;;
35540;SDS011;21650;48.840;9.162;2023-07-24T11:05:58;17.50;;;8.37;;
35540;SDS011;21650;48.840;9.162;2023-07-24T11:08:26;11.23;;;6.53;;
35540;SDS011;21650;48.840;9.162;2023-07-24T11:10:53;9.67;;;6.33;;
35540;SDS011;21650;48.840;9.162;2023-07-24T11:13:21;12.97;;;8.10;;
35540;SDS011;21650;48.840;9.162;2023-07-24T11:15:49;9.17;;;6.70;;
35540;SDS011;21650;48.840;9.162;2023-07-24T11:18:15;8.97;;;6.03;;
35540;SDS011;21650;48.840;9.162;2023-07-24T11:20:45;7.13;;;5.57;;
35540;SDS011;21650;48.840;9.162;2023-07-24T11:23:15;11.03;;;6.90;;
35540;SDS011;21650;48.840;9.162;2023-07-24T11:25:41;14.30;;;6.40;;
35540;SDS011;21650;48.840;9.162;2023-07-24T11:28:08;14.73;;;7.40;;
35540;SDS011;21650;48.840;9.162;2023-07-24T11:30:35;10.23;;;6.57;;
35540;SDS011;21650;48.840;9.162;2023-07-24T11:33:05;10.23;;;6.47;;
35540;SDS011;21650;48.840;9.162;2023-07-24T11:35:32;11.17;;;6.40;;
35540;SDS011;21650;48.840;9.162;2023-07-24T11:38:00;11.37;;;6.93;;
35540;SDS011;21650;48.840;9.162;2023-07-24T11:40:32;10.30;;;6.60;;
35540;SDS011;21650;48.840;9.162;2023-07-24T11:43:01;10.83;;;6.40;;
35540;SDS011;21650;48.840;9.162;2023-07-24T11:45:27;10.40;;;6.73;;
35540;SDS011;21650;48.840;9.162;2023-07-24T11:47:53;9.40;;;6.80;;
35540;SDS011;21650;48.840;9.162;2023-07-24T11:50:20;9.47;;;6.60;;
35540;SDS011;21650;48.840;9.162;2023-07-24T11:52:48;8.90;;;6.10;;
35540;SDS011;21650;48.840;9.162;2023-07-24T11:55:15;10.73;;;6.50;;
35540;SDS011;21650;48.840;9.162;2023-07-24T11:58:03;11.10;;;5.57;;
35540;SDS011;21650;48.840;9.162;2023-07-24T12:00:31;9.33;;;5.27;;
35540;SDS011;21650;48.840;9.162;2023-07-24T12:03:01;8.53;;;5.30;;
35540;SDS011;21650;48.840;9.162;2023-07-24T12:05:29;8.00;;;5.43;;
35540;SDS011;21650;48.840;9.162;2023-07-24T12:08:02;8.10;;;5.97;;
35540;SDS011;21650;48.840;9.162;2023-07-24T12:10:27;10.20;;;5.80;;
35540;SDS011;21650;48.840;9.162;2023-07-24T12:12:54;7.80;;;5.20;;
35540;SDS011;21650;48.840;9.162;2023-07-24T12:15:22;6.87;;;5.03;;
35540;SDS011;21650;48.840;9.162;2023-07-24T12:17:48;8.93;;;6.50;;
35540;SDS011;21650;48.840;9.162;2023-07-24T12:20:14;9.53;;;5.43;;
35540;SDS011;21650;48.840;9.162;2023-07-24T12:22:40;7.63;;;5.50;;
35540;SDS011;21650;48.840;9.162;2023-07-24T12:25:06;10.20;;;5.70;;
35540;SDS011;21650;48.840;9.162;2023-07-24T12:27:32;10.60;;;5.97;;
35540;SDS011;21650;48.840;9.162;2023-07-24T12:29:58;9.67;;;6.27;;
35540;SDS011;21650;48.840;9.162;2023-07-24T12:32:24;7.67;;;5.77;;
35540;SDS011;21650;48.840;9.162;2023-07-24T12:34:50;9.67;;;5.63;;
35540;SDS011;21650;48.840;9.162;2023-07-24T12:37:17;8.63;;;5.90;;
35540;SDS011;21650;48.840;9.162;2023-07-24T12:39:43;8.27;;;6.17;;
35540;SDS011;21650;48.840;9.162;2023-07-24T12:42:10;8.40;;;5.87;;
35540;SDS011;21650;48.840;9.162;2023-07-24T12:44:36;11.93;;;5.57;;
35540;SDS011;21650;48.840;9.162;2023-07-24T12:47:03;8.23;;;5.73;;
35540;SDS011;21650;48.840;9.162;2023-07-24T12:49:29;9.43;;;6.27;;
35540;SDS011;21650;48.840;9.162;2023-07-24T12:51:55;8.17;;;6.07;;
35540;SDS011;21650;48.840;9.162;2023-07-24T12:54:20;8.93;;;5.77;;
35540;SDS011;21650;48.840;9.162;2023-07-24T12:56:47;7.87;;;5.77;;
35540;SDS011;21650;48.840;9.162;2023-07-24T12:59:13;8.43;;;5.70;;
35540;SDS011;21650;48.840;9.162;2023-07-24T13:01:39;8.27;;;5.43;;
35540;SDS011;21650;48.840;9.162;2023-07-24T13:04:05;7.07;;;5.60;;
35540;SDS011;21650;48.840;9.162;2023-07-24T13:06:31;8.07;;;5.20;;
35540;SDS011;21650;48.840;9.162;2023-07-24T13:08:56;10.30;;;5.53;;
35540;SDS011;21650;48.840;9.162;2023-07-24T13:11:22;10.17;;;5.60;;
35540;SDS011;21650;48.840;9.162;2023-07-24T13:13:48;7.53;;;5.00;;
35540;SDS011;21650;48.840;9.162;2023-07-24T13:16:15;8.27;;;6.00;;
35540;SDS011;21650;48.840;9.162;2023-07-24T13:18:41;7.00;;;5.37;;
35540;SDS011;21650;48.840;9.162;2023-07-24T13:21:07;8.63;;;5.37;;
35540;SDS011;21650;48.840;9.162;2023-07-24T13:23:33;6.83;;;5.37;;
35540;SDS011;21650;48.840;9.162;2023-07-24T13:25:59;8.30;;;5.33;;
35540;SDS011;21650;48.840;9.162;2023-07-24T13:28:24;10.70;;;5.80;;
35540;SDS011;21650;48.840;9.162;2023-07-24T13:30:50;8.43;;;5.83;;
35540;SDS011;21650;48.840;9.162;2023-07-24T13:33:15;8.80;;;5.43;;
35540;SDS011;21650;48.840;9.162;2023-07-24T13:35:41;9.47;;;5.83;;
35540;SDS011;21650;48.840;9.162;2023-07-24T13:38:07;10.53;;;5.80;;
35540;SDS011;21650;48.840;9.162;2023-07-24T13:40:35;12.07;;;5.17;;
35540;SDS011;21650;48.840;9.162;2023-07-24T13:43:01;8.30;;;5.80;;
35540;SDS011;21650;48.840;9.162;2023-07-24T13:45:27;8.57;;;6.07;;
35540;SDS011;21650;48.840;9.162;2023-07-24T13:47:54;7.93;;;5.60;;
35540;SDS011;21650;48.840;9.162;2023-07-24T13:50:19;8.60;;;6.40;;
35540;SDS011;21650;48.840;9.162;2023-07-24T13:52:45;25.47;;;13.17;;
35540;SDS011;21650;48.840;9.162;2023-07-24T13:55:11;36.43;;;19.30;;
35540;SDS011;21650;48.840;9.162;2023-07-24T13:57:36;19.17;;;11.40;;
35540;SDS011;21650;48.840;9.162;2023-07-24T14:00:02;16.83;;;9.67;;
35540;SDS011;21650;48.840;9.162;2023-07-24T14:02:28;15.40;;;8.50;;
35540;SDS011;21650;48.840;9.162;2023-07-24T14:04:53;8.70;;;5.70;;
35540;SDS011;21650;48.840;9.162;2023-07-24T14:07:19;8.20;;;5.07;;
35540;SDS011;21650;48.840;9.162;2023-07-24T14:09:45;7.83;;;5.03;;
35540;SDS011;21650;48.840;9.162;2023-07-24T14:12:10;9.47;;;4.63;;
35540;SDS011;21650;48.840;9.162;2023-07-24T14:14:36;6.00;;;4.70;;
35540;SDS011;21650;48.840;9.162;2023-07-24T14:17:02;6.53;;;3.90;;
35540;SDS011;21650;48.840;9.162;2023-07-24T14:19:27;8.93;;;4.47;;
35540;SDS011;21650;48.840;9.162;2023-07-24T14:21:53;6.63;;;4.57;;
35540;SDS011;21650;48.840;9.162;2023-07-24T14:24:18;6.38;;;3.90;;
35540;SDS011;21650;48.840;9.162;2023-07-24T14:26:44;6.65;;;4.47;;
35540;SDS011;21650;48.840;9.162;2023-07-24T14:29:10;5.77;;;4.07;;
35540;SDS011;21650;48.840;9.162;2023-07-24T14:31:36;5.67;;;4.30;;
35540;SDS011;21650;48.840;9.162;2023-07-24T14:34:02;6.53;;;4.60;;
35540;SDS011;21650;48.840;9.162;2023-07-24T14:36:28;9.07;;;6.07;;
35540;SDS011;21650;48.840;9.162;2023-07-24T14:38:59;5.53;;;3.47;;
35540;SDS011;21650;48.840;9.162;2023-07-24T14:41:25;5.30;;;3.85;;
35540;SDS011;21650;48.840;9.162;2023-07-24T14:43:51;6.70;;;3.25;;